Time;durP1;ratioP1;P1;durP2;ratioP2;P2;SDS_P1;SDS_P2;PMS_P1;PMS_P2;Temp;Humidity;BMP_temperature;BMP_pressure;BME280_temperature;BME280_humidity;BME280_pressure;Samples;Min_cycle;Max_cycle;Signal;HPM_P1;HPM_P2
2023/11/14 00:01:55;;;;;;;17.23;8.52;;;7.90;99.90;;;;;;4858019;29;20060;-77
2023/11/14 00:04:24;;;;;;;17.90;9.43;;;8.00;99.90;;;;;;4892083;29;20040;-76
2023/11/14 00:06:52;;;;;;;18.38;10.20;;;8.00;99.90;;;;;;4893714;29;20064;-76
2023/11/14 00:09:21;;;;;;;18.05;9.65;;;8.00;99.90;;;;;;4882563;29;20174;-76
2023/11/14 00:11:49;;;;;;;18.55;10.02;;;8.00;99.90;;;;;;4883856;29;20118;-76
2023/11/14 00:14:21;;;;;;;18.63;9.70;;;8.00;99.90;;;;;;4885639;29;20128;-77
2023/11/14 00:16:50;;;;;;;19.45;10.02;;;8.00;99.90;;;;;;4882612;29;20152;-76
2023/11/14 00:19:19;;;;;;;18.38;9.43;;;8.00;99.90;;;;;;4884696;29;20263;-76
2023/11/14 00:21:48;;;;;;;18.17;9.20;;;8.00;99.90;;;;;;4883616;29;20060;-76
2023/11/14 00:24:16;;;;;;;19.40;10.02;;;8.00;99.90;;;;;;4886543;29;20048;-77
2023/11/14 00:26:45;;;;;;;18.63;10.02;;;8.00;99.90;;;;;;4886435;29;20052;-76
2023/11/14 00:29:13;;;;;;;14.85;8.93;;;8.00;99.90;;;;;;4887565;29;20067;-76
2023/11/14 00:31:45;;;;;;;22.25;9.80;;;8.00;99.90;;;;;;4869630;29;20135;-76
2023/11/14 00:34:14;;;;;;;17.42;8.48;;;8.00;99.90;;;;;;4885512;29;20416;-76
2023/11/14 00:36:43;;;;;;;15.35;8.38;;;8.00;99.90;;;;;;4882904;29;20056;-77
2023/11/14 00:39:14;;;;;;;15.63;8.73;;;8.00;99.90;;;;;;4885260;29;20052;-76
2023/11/14 00:41:43;;;;;;;16.38;8.63;;;8.00;99.90;;;;;;4888823;29;20139;-77
2023/11/14 00:44:12;;;;;;;17.98;9.82;;;8.00;99.90;;;;;;4894777;29;20051;-79
2023/11/14 00:46:40;;;;;;;17.55;9.13;;;8.00;99.90;;;;;;4886418;29;20788;-78
2023/11/14 00:49:10;;;;;;;15.73;8.50;;;8.10;99.90;;;;;;4884306;29;20500;-78
2023/11/14 00:51:39;;;;;;;17.13;8.88;;;8.00;99.90;;;;;;4887670;29;20149;-79
2023/11/14 00:54:08;;;;;;;15.93;9.45;;;8.00;99.90;;;;;;4888401;29;20043;-79
2023/11/14 00:56:38;;;;;;;16.38;8.25;;;8.10;99.90;;;;;;4871862;29;20056;-80
2023/11/14 00:59:08;;;;;;;18.35;9.32;;;8.10;99.90;;;;;;4893805;29;20067;-80
2023/11/14 01:01:37;;;;;;;17.38;8.68;;;8.10;99.90;;;;;;4896989;29;20044;-81
2023/11/14 01:04:09;;;;;;;15.45;8.75;;;8.10;99.90;;;;;;4904691;29;20128;-79
2023/11/14 01:06:39;;;;;;;15.52;8.77;;;8.10;99.90;;;;;;4894400;29;20060;-79
2023/11/14 01:09:09;;;;;;;15.40;8.25;;;8.10;99.90;;;;;;4877834;29;20155;-79
2023/11/14 01:11:38;;;;;;;15.27;8.05;;;8.10;99.90;;;;;;4869844;29;20048;-79
2023/11/14 01:14:07;;;;;;;16.15;8.45;;;8.10;99.90;;;;;;4892621;29;20080;-79
2023/11/14 01:16:36;;;;;;;17.52;8.68;;;7.80;99.90;;;;;;4896695;29;20052;-80
2023/11/14 01:19:05;;;;;;;16.55;8.38;;;8.10;99.90;;;;;;4884806;29;20056;-79
2023/11/14 01:21:33;;;;;;;17.52;9.35;;;8.10;99.90;;;;;;4864706;29;20399;-78
2023/11/14 01:24:04;;;;;;;18.25;9.35;;;8.10;99.90;;;;;;4893811;29;21129;-78
2023/11/14 01:26:35;;;;;;;19.95;8.48;;;8.20;99.90;;;;;;4888682;29;20304;-78
2023/11/14 01:29:05;;;;;;;17.40;9.32;;;8.20;99.90;;;;;;4890288;29;20051;-80
2023/11/14 01:31:34;;;;;;;14.80;7.68;;;8.20;99.90;;;;;;4889638;29;20056;-78
2023/11/14 01:34:03;;;;;;;16.48;8.75;;;8.20;99.90;;;;;;4895785;29;20056;-79
2023/11/14 01:36:31;;;;;;;16.63;8.25;;;8.20;99.90;;;;;;4883403;29;20419;-79
2023/11/14 01:39:00;;;;;;;13.18;7.60;;;8.20;99.90;;;;;;4892039;29;20123;-79
2023/11/14 01:41:30;;;;;;;17.42;9.15;;;8.30;99.90;;;;;;4891980;29;20743;-79
2023/11/14 01:43:58;;;;;;;17.52;8.63;;;8.20;99.90;;;;;;4862644;29;20052;-79
2023/11/14 01:46:28;;;;;;;15.13;8.95;;;8.20;99.90;;;;;;4890944;29;20534;-79
2023/11/14 01:48:58;;;;;;;17.30;8.50;;;8.30;99.90;;;;;;4878672;29;20060;-78
2023/11/14 01:51:28;;;;;;;19.30;8.20;;;8.20;99.90;;;;;;4893857;29;20066;-79
2023/11/14 01:53:57;;;;;;;15.48;8.07;;;8.30;99.90;;;;;;4893478;29;20056;-79
2023/11/14 01:56:26;;;;;;;15.65;7.78;;;8.30;99.90;;;;;;4890820;29;20579;-80
2023/11/14 01:58:57;;;;;;;15.63;8.15;;;8.30;99.90;;;;;;4875015;29;20056;-79
2023/11/14 02:01:27;;;;;;;17.02;8.10;;;8.30;99.90;;;;;;4872092;29;20048;-79
2023/11/14 02:03:55;;;;;;;15.27;8.73;;;8.40;99.90;;;;;;4873261;29;20052;-80
2023/11/14 02:06:25;;;;;;;15.52;8.85;;;8.40;99.90;;;;;;4895217;29;20064;-79
2023/11/14 02:08:54;;;;;;;17.10;8.02;;;8.40;99.90;;;;;;4896774;29;20063;-79
2023/11/14 02:11:23;;;;;;;15.13;7.65;;;8.30;99.90;;;;;;4905168;29;20858;-80
2023/11/14 02:13:52;;;;;;;15.43;7.72;;;8.30;99.90;;;;;;4910419;29;20063;-80
2023/11/14 02:16:23;;;;;;;13.93;8.00;;;8.30;99.90;;;;;;4890942;29;20056;-79
2023/11/14 02:18:52;;;;;;;14.98;8.50;;;8.40;99.90;;;;;;4905508;29;20060;-78
2023/11/14 02:21:25;;;;;;;16.80;9.32;;;8.40;99.90;;;;;;4878460;29;20102;-78
2023/11/14 02:23:54;;;;;;;16.10;8.23;;;8.40;99.90;;;;;;4897827;29;20055;-78
2023/11/14 02:26:24;;;;;;;14.93;8.38;;;8.40;99.90;;;;;;4921308;29;20042;-79
2023/11/14 02:28:58;;;;;;;14.55;7.85;;;8.30;99.90;;;;;;4920345;29;20055;-79
2023/11/14 02:31:29;;;;;;;14.60;7.50;;;8.30;99.90;;;;;;4902349;29;20538;-79
2023/11/14 02:33:57;;;;;;;14.93;7.30;;;8.30;99.90;;;;;;4910774;29;20058;-79
2023/11/14 02:36:30;;;;;;;14.55;8.30;;;8.30;99.90;;;;;;4902388;29;20048;-79
2023/11/14 02:38:59;;;;;;;16.35;8.25;;;8.30;99.90;;;;;;4905279;29;20102;-79
2023/11/14 02:41:30;;;;;;;12.32;7.40;;;8.30;99.90;;;;;;4905114;29;20063;-79
2023/11/14 02:43:58;;;;;;;16.50;8.13;;;8.30;99.90;;;;;;4910087;29;20112;-80
2023/11/14 02:46:27;;;;;;;15.25;7.78;;;8.40;99.90;;;;;;4901973;29;20127;-79
2023/11/14 02:48:55;;;;;;;17.95;8.10;;;8.40;99.90;;;;;;4887916;29;20504;-79
2023/11/14 02:51:24;;;;;;;16.73;7.90;;;8.40;99.90;;;;;;4920239;29;20178;-80
2023/11/14 02:53:53;;;;;;;13.27;8.38;;;8.40;99.90;;;;;;4918334;29;20546;-79
2023/11/14 02:56:22;;;;;;;15.48;8.32;;;8.40;99.90;;;;;;4911834;29;20064;-78
2023/11/14 02:58:53;;;;;;;15.07;8.13;;;8.40;99.90;;;;;;4908447;29;20048;-79
2023/11/14 03:01:22;;;;;;;13.57;7.50;;;8.50;99.90;;;;;;4886473;29;20055;-79
2023/11/14 03:03:51;;;;;;;14.02;7.90;;;8.50;99.90;;;;;;4906652;29;20043;-79
2023/11/14 03:06:20;;;;;;;15.27;8.60;;;8.50;99.90;;;;;;4891895;29;20051;-78
2023/11/14 03:08:48;;;;;;;16.08;8.23;;;8.50;99.90;;;;;;4903166;29;20066;-78
2023/11/14 03:11:17;;;;;;;14.23;8.05;;;8.50;99.90;;;;;;4888897;29;20070;-78
2023/11/14 03:13:45;;;;;;;12.80;7.03;;;8.50;99.90;;;;;;4873742;29;20048;-79
2023/11/14 03:16:16;;;;;;;16.58;7.68;;;8.50;99.90;;;;;;4900351;29;20052;-78
2023/11/14 03:18:44;;;;;;;15.23;6.63;;;8.50;99.90;;;;;;4865537;29;20431;-78
2023/11/14 03:21:15;;;;;;;13.45;7.82;;;8.60;99.90;;;;;;4889614;29;20142;-78
2023/11/14 03:23:43;;;;;;;14.15;7.45;;;8.60;99.90;;;;;;4892345;29;20076;-78
2023/11/14 03:26:12;;;;;;;12.50;6.43;;;8.70;99.90;;;;;;4898757;29;20044;-79
2023/11/14 03:28:40;;;;;;;12.90;6.75;;;8.60;99.90;;;;;;4892691;29;20147;-79
2023/11/14 03:31:09;;;;;;;14.18;7.60;;;8.70;99.90;;;;;;4893323;29;20048;-79
2023/11/14 03:33:39;;;;;;;14.93;7.80;;;8.70;99.90;;;;;;4889024;29;20051;-79
2023/11/14 03:36:08;;;;;;;13.10;7.00;;;8.70;99.90;;;;;;4864128;29;22520;-79
2023/11/14 03:38:37;;;;;;;12.65;6.93;;;8.70;99.90;;;;;;4888273;29;20047;-78
2023/11/14 03:41:05;;;;;;;16.13;7.47;;;8.70;99.90;;;;;;4877727;29;20164;-80
2023/11/14 03:43:34;;;;;;;21.88;7.68;;;8.70;99.90;;;;;;4887960;29;20534;-79
2023/11/14 03:46:03;;;;;;;13.18;7.38;;;8.70;99.90;;;;;;4877766;29;20169;-80
2023/11/14 03:48:31;;;;;;;15.07;7.70;;;8.70;99.90;;;;;;4889824;29;20060;-79
2023/11/14 03:51:02;;;;;;;12.73;7.75;;;8.60;99.90;;;;;;4872120;29;20060;-79
2023/11/14 03:53:30;;;;;;;15.15;7.53;;;8.60;99.90;;;;;;4888358;29;20060;-79
2023/11/14 03:55:59;;;;;;;13.48;6.85;;;8.60;99.90;;;;;;4887507;29;22508;-78
2023/11/14 03:58:27;;;;;;;14.05;7.28;;;8.60;99.90;;;;;;4902012;29;20064;-79
2023/11/14 04:00:56;;;;;;;13.32;7.00;;;8.50;99.90;;;;;;4894346;29;20221;-80
2023/11/14 04:03:24;;;;;;;17.33;7.80;;;8.50;99.90;;;;;;4891985;29;20084;-79
2023/11/14 04:05:53;;;;;;;11.88;7.22;;;8.50;99.90;;;;;;4887930;29;20973;-79
2023/11/14 04:08:23;;;;;;;14.07;6.65;;;8.50;99.90;;;;;;4883012;29;20056;-79
2023/11/14 04:10:51;;;;;;;13.93;6.53;;;8.50;99.90;;;;;;4887991;29;20056;-79
2023/11/14 04:13:20;;;;;;;12.38;7.00;;;8.50;99.90;;;;;;4888934;29;20060;-78
2023/11/14 04:15:49;;;;;;;17.27;7.82;;;8.60;99.90;;;;;;4886497;29;20063;-79
2023/11/14 04:18:18;;;;;;;12.73;7.57;;;8.60;99.90;;;;;;4886534;29;20044;-79
2023/11/14 04:20:46;;;;;;;15.95;7.82;;;8.60;99.90;;;;;;4886645;29;20048;-79
2023/11/14 04:23:15;;;;;;;16.15;7.93;;;8.60;99.90;;;;;;4887384;29;20056;-78
2023/11/14 04:25:45;;;;;;;15.10;7.82;;;8.60;99.90;;;;;;4879507;29;22918;-78
2023/11/14 04:28:13;;;;;;;16.13;7.50;;;8.60;99.90;;;;;;4895987;29;22299;-78
2023/11/14 04:30:42;;;;;;;15.43;8.05;;;8.60;99.90;;;;;;4888783;29;22700;-79
2023/11/14 04:33:10;;;;;;;13.50;7.40;;;8.60;99.90;;;;;;4888329;29;20056;-78
2023/11/14 04:35:40;;;;;;;15.80;7.68;;;8.60;99.90;;;;;;4882493;29;20519;-78
2023/11/14 04:38:09;;;;;;;18.25;7.65;;;8.60;99.90;;;;;;4889747;29;20512;-78
2023/11/14 04:40:37;;;;;;;15.15;7.82;;;8.60;99.90;;;;;;4862219;29;20060;-78
2023/11/14 04:43:07;;;;;;;12.82;6.72;;;8.60;99.90;;;;;;4887761;29;20161;-79
2023/11/14 04:45:35;;;;;;;17.02;7.93;;;8.70;99.90;;;;;;4884229;29;20512;-79
2023/11/14 04:48:04;;;;;;;11.88;7.15;;;8.70;99.90;;;;;;4896794;29;20056;-78
2023/11/14 04:50:33;;;;;;;12.02;7.03;;;8.70;99.90;;;;;;4890733;29;20071;-80
2023/11/14 04:53:01;;;;;;;16.15;7.50;;;8.70;99.90;;;;;;4875642;29;20262;-80
2023/11/14 04:55:29;;;;;;;15.52;8.15;;;8.80;99.90;;;;;;4871090;29;20044;-79
2023/11/14 04:57:58;;;;;;;14.00;7.38;;;8.90;99.90;;;;;;4888326;29;20409;-78
2023/11/14 05:00:28;;;;;;;15.45;8.20;;;8.90;99.90;;;;;;4890109;29;20088;-78
2023/11/14 05:03:03;;;;;;;16.50;7.50;;;8.90;99.90;;;;;;4897839;29;20554;-79
2023/11/14 05:05:32;;;;;;;16.58;8.10;;;9.00;99.90;;;;;;4891942;29;20040;-79
2023/11/14 05:08:01;;;;;;;15.07;7.30;;;7.50;99.90;;;;;;4897185;29;20053;-77
2023/11/14 05:10:30;;;;;;;15.45;7.68;;;9.00;99.90;;;;;;4896003;29;20063;-79
2023/11/14 05:12:59;;;;;;;14.18;7.82;;;9.00;99.90;;;;;;4885490;29;20183;-78
2023/11/14 05:15:34;;;;;;;16.08;8.10;;;9.10;99.90;;;;;;4891458;29;22689;-81
2023/11/14 05:18:03;;;;;;;14.82;8.02;;;9.00;99.90;;;;;;4896967;29;20076;-78
2023/11/14 05:20:39;;;;;;;14.25;7.80;;;9.10;99.90;;;;;;4906588;29;20051;-80
2023/11/14 05:23:17;;;;;;;18.67;7.43;;;8.60;99.90;;;;;;4898534;29;20583;-81
2023/11/14 05:25:48;;;;;;;14.35;7.95;;;9.10;99.90;;;;;;4923682;29;20058;-83
2023/11/14 05:28:17;;;;;;;17.92;8.93;;;9.10;99.90;;;;;;4912284;29;20048;-82
2023/11/14 05:30:48;;;;;;;18.52;8.85;;;9.10;99.90;;;;;;4927692;29;20525;-83
2023/11/14 05:33:21;;;;;;;14.45;7.63;;;9.20;99.90;;;;;;4907162;29;20086;-81
2023/11/14 05:35:51;;;;;;;36.45;19.27;;;9.20;99.90;;;;;;4926013;29;20067;-81
2023/11/14 05:38:22;;;;;;;29.38;17.85;;;9.10;99.90;;;;;;4908335;29;20068;-82
2023/11/14 05:40:52;;;;;;;65.10;32.20;;;7.90;99.90;;;;;;4899656;29;20067;-81
2023/11/14 05:43:24;;;;;;;106.18;47.35;;;9.20;99.90;;;;;;4919972;29;20079;-81
2023/11/14 05:45:55;;;;;;;108.30;54.00;;;9.10;99.90;;;;;;4904373;29;20064;-81
2023/11/14 05:48:28;;;;;;;38.42;22.45;;;9.10;99.90;;;;;;4911611;29;20119;-79
2023/11/14 05:51:00;;;;;;;36.42;20.13;;;9.10;99.90;;;;;;4888253;29;20135;-80
2023/11/14 05:53:29;;;;;;;34.33;20.52;;;9.20;99.90;;;;;;4908610;29;20112;-80
2023/11/14 05:55:58;;;;;;;32.47;20.38;;;9.20;99.90;;;;;;4884858;29;20107;-80
2023/11/14 05:58:28;;;;;;;32.25;18.83;;;9.20;99.90;;;;;;4907578;29;20515;-81
2023/11/14 06:00:58;;;;;;;25.23;13.75;;;9.50;99.90;;;;;;4897081;29;22053;-82
2023/11/14 06:03:34;;;;;;;24.20;14.05;;;9.20;99.90;;;;;;4906022;29;20044;-80
2023/11/14 06:06:07;;;;;;;24.45;13.63;;;9.20;99.90;;;;;;4890989;29;20052;-79
2023/11/14 06:08:40;;;;;;;20.48;11.95;;;9.20;99.90;;;;;;4906808;29;20124;-82
2023/11/14 06:11:11;;;;;;;21.88;11.05;;;9.10;99.90;;;;;;4924975;29;20060;-81
2023/11/14 06:13:45;;;;;;;20.17;11.93;;;9.40;99.90;;;;;;4890286;29;20062;-81
2023/11/14 06:16:30;;;;;;;25.35;12.18;;;9.30;99.90;;;;;;4904445;29;20044;-79
2023/11/14 06:19:00;;;;;;;20.55;10.63;;;9.30;99.90;;;;;;4922777;29;22266;-81
2023/11/14 06:21:28;;;;;;;25.02;13.88;;;9.30;99.90;;;;;;4910035;29;20961;-80
2023/11/14 06:23:58;;;;;;;27.02;15.68;;;9.30;99.90;;;;;;4895165;29;20098;-80
2023/11/14 06:26:26;;;;;;;19.67;10.93;;;9.40;99.90;;;;;;4896669;29;21073;-80
2023/11/14 06:28:55;;;;;;;43.35;25.10;;;9.40;99.90;;;;;;4894138;29;21041;-80
2023/11/14 06:31:25;;;;;;;29.27;16.85;;;9.40;99.90;;;;;;4891264;29;20052;-80
2023/11/14 06:33:56;;;;;;;31.90;20.13;;;9.40;99.90;;;;;;4876231;29;20047;-77
2023/11/14 06:36:24;;;;;;;25.60;15.55;;;9.40;99.90;;;;;;4895493;29;20040;-77
2023/11/14 06:38:52;;;;;;;23.52;12.30;;;9.40;99.90;;;;;;4913306;29;20135;-77
2023/11/14 06:41:21;;;;;;;26.02;15.30;;;9.50;99.90;;;;;;4913537;29;20048;-77
2023/11/14 06:43:50;;;;;;;35.83;18.83;;;9.40;99.90;;;;;;4898807;29;20060;-77
2023/11/14 06:46:18;;;;;;;21.33;10.77;;;9.50;99.90;;;;;;4896605;29;20142;-78
2023/11/14 06:48:47;;;;;;;20.05;9.93;;;9.60;99.90;;;;;;4898149;29;20072;-78
2023/11/14 06:51:16;;;;;;;21.42;10.77;;;9.60;99.90;;;;;;4883228;29;20059;-78
2023/11/14 06:53:48;;;;;;;23.27;10.30;;;9.60;99.90;;;;;;4895316;29;20068;-78
2023/11/14 06:56:18;;;;;;;18.90;9.85;;;9.60;99.90;;;;;;4871495;29;20052;-78
2023/11/14 06:58:47;;;;;;;18.25;10.20;;;9.60;99.90;;;;;;4872633;29;20082;-78
2023/11/14 07:01:15;;;;;;;30.40;13.88;;;9.60;99.90;;;;;;4890263;29;20060;-77
2023/11/14 07:03:44;;;;;;;23.92;12.07;;;9.60;99.90;;;;;;4879124;29;20059;-79
2023/11/14 07:06:13;;;;;;;24.30;12.38;;;9.60;99.90;;;;;;4889277;29;20115;-78
2023/11/14 07:08:43;;;;;;;24.50;12.77;;;9.60;99.90;;;;;;4874156;29;20071;-78
2023/11/14 07:11:12;;;;;;;27.50;13.60;;;9.70;99.90;;;;;;4886125;29;20637;-78
2023/11/14 07:13:43;;;;;;;28.67;14.70;;;9.70;99.90;;;;;;4880058;29;20063;-78
2023/11/14 07:16:13;;;;;;;28.67;16.75;;;9.70;99.90;;;;;;4875248;29;20056;-78
2023/11/14 07:18:42;;;;;;;29.80;15.25;;;9.70;99.90;;;;;;4890840;29;20063;-79
2023/11/14 07:21:10;;;;;;;28.17;15.30;;;9.80;99.90;;;;;;4879199;29;20106;-78
2023/11/14 07:23:39;;;;;;;24.85;13.63;;;9.80;99.90;;;;;;4855534;29;20709;-78
2023/11/14 07:26:10;;;;;;;22.20;10.55;;;9.80;99.90;;;;;;4893284;29;20139;-78
2023/11/14 07:28:40;;;;;;;19.95;9.63;;;9.80;99.90;;;;;;4852527;29;20606;-78
2023/11/14 07:31:09;;;;;;;19.38;9.98;;;9.80;99.90;;;;;;4860827;29;20983;-78
2023/11/14 07:33:38;;;;;;;19.92;10.30;;;9.90;99.90;;;;;;4878724;29;20063;-78
2023/11/14 07:36:07;;;;;;;22.35;11.43;;;9.90;99.90;;;;;;4877601;29;20055;-78
2023/11/14 07:38:35;;;;;;;18.08;10.02;;;10.00;99.90;;;;;;4880513;29;20180;-79
2023/11/14 07:41:07;;;;;;;20.15;9.50;;;10.00;99.90;;;;;;4883975;29;20091;-78
2023/11/14 07:43:37;;;;;;;16.10;8.52;;;10.10;99.90;;;;;;4868867;29;22142;-79
2023/11/14 07:46:07;;;;;;;20.10;8.70;;;10.30;99.90;;;;;;4881186;29;20170;-78
2023/11/14 07:48:35;;;;;;;20.38;9.45;;;10.40;99.90;;;;;;4867001;29;20412;-78
2023/11/14 07:51:04;;;;;;;21.40;9.32;;;10.40;99.90;;;;;;4880547;29;20512;-77
2023/11/14 07:53:33;;;;;;;18.67;8.43;;;10.40;99.90;;;;;;4897966;29;20092;-78
2023/11/14 07:56:01;;;;;;;18.83;8.35;;;10.40;99.90;;;;;;4884759;29;20048;-79
2023/11/14 07:58:30;;;;;;;19.95;9.27;;;10.50;99.90;;;;;;4869585;29;20048;-78
2023/11/14 08:01:00;;;;;;;17.10;9.00;;;10.50;99.90;;;;;;4868077;29;20896;-78
2023/11/14 08:03:28;;;;;;;28.67;16.30;;;10.70;99.90;;;;;;4867399;29;22137;-77
2023/11/14 08:05:57;;;;;;;32.45;18.23;;;11.00;99.90;;;;;;4898465;29;20056;-77
2023/11/14 08:08:25;;;;;;;32.53;15.20;;;11.10;99.90;;;;;;4882288;29;20052;-78
2023/11/14 08:10:54;;;;;;;31.23;14.02;;;11.20;99.90;;;;;;4845677;29;22266;-77
2023/11/14 08:13:22;;;;;;;36.03;16.90;;;11.20;99.90;;;;;;4876924;29;20080;-77
2023/11/14 08:15:51;;;;;;;26.90;13.18;;;11.10;99.90;;;;;;4869972;29;20056;-76
2023/11/14 08:18:21;;;;;;;26.73;12.15;;;11.00;99.90;;;;;;4865725;29;20056;-78
2023/11/14 08:20:51;;;;;;;25.00;12.77;;;10.90;99.90;;;;;;4868410;29;20072;-78
2023/11/14 08:23:19;;;;;;;20.20;9.98;;;10.80;99.90;;;;;;4870675;29;20091;-77
2023/11/14 08:25:47;;;;;;;19.05;9.55;;;10.70;99.90;;;;;;4874313;29;20598;-77
2023/11/14 08:28:16;;;;;;;16.55;8.05;;;10.80;99.90;;;;;;4864977;29;20158;-77
2023/11/14 08:30:44;;;;;;;15.57;8.02;;;10.70;99.90;;;;;;4872787;29;20135;-77
2023/11/14 08:33:13;;;;;;;17.00;7.32;;;10.70;99.90;;;;;;4860653;29;20090;-77
2023/11/14 08:35:43;;;;;;;16.55;8.55;;;10.70;99.90;;;;;;4867987;29;20056;-77
2023/11/14 08:38:12;;;;;;;16.08;9.02;;;10.60;99.90;;;;;;4863059;29;21718;-78
2023/11/14 08:40:50;;;;;;;12.35;7.30;;;10.70;99.90;;;;;;4867461;29;20052;-79
2023/11/14 08:43:18;;;;;;;15.02;7.05;;;10.70;99.90;;;;;;4880467;29;20199;-77
2023/11/14 08:45:49;;;;;;;14.68;7.20;;;10.70;99.90;;;;;;4848260;29;20492;-78
2023/11/14 08:48:18;;;;;;;16.10;7.03;;;10.70;99.90;;;;;;4858631;29;20048;-78
2023/11/14 08:50:47;;;;;;;15.20;7.63;;;10.70;99.90;;;;;;4855412;29;22198;-78
2023/11/14 08:53:19;;;;;;;14.82;7.53;;;10.70;99.90;;;;;;4870622;29;20067;-80
2023/11/14 08:55:48;;;;;;;15.05;7.47;;;10.70;99.90;;;;;;4887141;29;20704;-79
2023/11/14 08:58:17;;;;;;;18.20;7.68;;;10.70;99.90;;;;;;4885234;29;20052;-79
2023/11/14 09:00:46;;;;;;;17.02;8.93;;;10.70;99.90;;;;;;4884578;29;20104;-79
2023/11/14 09:03:15;;;;;;;15.38;8.18;;;10.70;99.90;;;;;;4887332;29;20052;-82
2023/11/14 09:05:48;;;;;;;18.58;10.50;;;10.70;99.90;;;;;;4898177;29;20047;-81
2023/11/14 09:08:18;;;;;;;47.40;23.17;;;10.90;99.90;;;;;;4887811;29;20961;-79
2023/11/14 09:10:51;;;;;;;38.88;20.10;;;10.70;99.90;;;;;;4893545;29;20056;-81
2023/11/14 09:13:20;;;;;;;28.60;17.20;;;10.90;99.90;;;;;;4897406;29;20056;-83
2023/11/14 09:15:48;;;;;;;24.85;13.48;;;10.60;99.90;;;;;;4887415;29;20060;-81
2023/11/14 09:18:18;;;;;;;26.77;14.20;;;11.00;99.90;;;;;;4898409;29;20040;-81
2023/11/14 09:20:48;;;;;;;30.63;16.50;;;10.40;99.90;;;;;;4891984;29;20056;-80
2023/11/14 09:23:16;;;;;;;23.95;14.15;;;10.80;99.90;;;;;;4887275;29;20242;-80
2023/11/14 09:25:45;;;;;;;28.92;15.45;;;11.60;99.90;;;;;;4874424;29;20052;-80
2023/11/14 09:28:15;;;;;;;28.10;15.15;;;11.10;99.90;;;;;;4899565;29;20050;-82
2023/11/14 09:30:45;;;;;;;22.90;13.35;;;10.70;99.90;;;;;;4884122;29;20430;-80
2023/11/14 09:33:14;;;;;;;20.05;11.50;;;11.00;99.90;;;;;;4898555;29;20062;-80
2023/11/14 09:35:43;;;;;;;16.73;9.40;;;10.90;99.90;;;;;;4894376;29;20538;-81
2023/11/14 09:38:13;;;;;;;19.65;10.38;;;11.10;99.90;;;;;;4903225;29;22248;-80
2023/11/14 09:40:43;;;;;;;18.67;9.80;;;11.00;99.90;;;;;;4876889;29;20063;-80
2023/11/14 09:43:11;;;;;;;18.17;9.18;;;11.50;99.90;;;;;;4894505;29;20063;-80
2023/11/14 09:45:41;;;;;;;19.73;8.32;;;11.30;99.90;;;;;;4871117;29;20816;-80
2023/11/14 09:48:10;;;;;;;17.70;7.85;;;11.20;99.90;;;;;;4866174;29;20063;-80
2023/11/14 09:50:42;;;;;;;20.63;8.73;;;11.20;99.90;;;;;;4863822;29;20973;-82
2023/11/14 09:53:13;;;;;;;17.02;8.45;;;11.30;99.90;;;;;;4881660;29;20060;-79
2023/11/14 09:55:44;;;;;;;16.67;8.38;;;11.20;99.90;;;;;;4904605;29;22296;-80
2023/11/14 09:58:13;;;;;;;15.05;8.00;;;11.20;99.90;;;;;;4890905;29;20056;-81
2023/11/14 10:00:43;;;;;;;13.48;7.47;;;11.30;99.90;;;;;;4872733;29;20063;-81
2023/11/14 10:03:11;;;;;;;18.35;7.05;;;11.30;99.90;;;;;;4912469;29;20083;-82
2023/11/14 10:05:40;;;;;;;15.52;7.95;;;11.80;99.90;;;;;;4903302;29;20062;-81
2023/11/14 10:08:16;;;;;;;13.93;6.63;;;12.20;99.90;;;;;;4867109;29;20048;-82
2023/11/14 10:11:04;;;;;;;15.13;6.80;;;10.60;99.90;;;;;;4892432;29;20051;-82
2023/11/14 10:13:36;;;;;;;13.60;6.28;;;11.10;99.90;;;;;;4910514;29;20123;-80
2023/11/14 10:16:19;;;;;;;11.75;6.32;;;11.60;99.90;;;;;;4891394;29;20056;-81
2023/11/14 10:18:49;;;;;;;;;;;11.00;99.90;;;;;;4910706;29;20119;-80
2023/11/14 10:21:26;;;;;;;14.00;6.90;;;10.30;99.90;;;;;;4927959;29;19934;-81
2023/11/14 10:23:59;;;;;;;12.27;5.80;;;11.30;99.90;;;;;;4914847;29;20060;-83
2023/11/14 10:26:28;;;;;;;12.77;6.68;;;11.00;99.90;;;;;;4918209;29;20052;-80
2023/11/14 10:29:00;;;;;;;11.02;5.30;;;10.50;99.90;;;;;;4891867;29;20613;-81
2023/11/14 10:31:39;;;;;;;12.82;5.65;;;11.10;99.90;;;;;;4930317;29;20891;-81
2023/11/14 10:34:26;;;;;;;10.43;5.55;;;11.10;99.90;;;;;;4919018;29;20080;-82
2023/11/14 10:36:56;;;;;;;11.32;5.93;;;11.00;99.90;;;;;;4913573;29;20052;-82
2023/11/14 10:39:27;;;;;;;10.77;5.25;;;11.20;99.90;;;;;;4918039;29;20088;-81
2023/11/14 10:41:57;;;;;;;10.75;5.82;;;11.10;99.90;;;;;;4897854;29;20099;-80
2023/11/14 10:44:26;;;;;;;9.50;4.80;;;11.40;99.90;;;;;;4914435;29;20109;-81
2023/11/14 10:46:58;;;;;;;9.05;5.00;;;11.40;99.90;;;;;;4916462;29;20052;-81
2023/11/14 10:49:30;;;;;;;9.82;4.63;;;11.50;99.90;;;;;;4904460;29;20068;-82
2023/11/14 10:52:01;;;;;;;9.68;3.95;;;11.40;99.90;;;;;;4918588;29;20149;-80
2023/11/14 10:54:32;;;;;;;10.15;4.40;;;10.90;99.90;;;;;;4913775;29;20056;-81
2023/11/14 10:57:01;;;;;;;8.40;3.65;;;11.20;99.90;;;;;;4909465;29;20076;-81
2023/11/14 10:59:42;;;;;;;6.60;3.08;;;11.50;99.90;;;;;;4909367;29;20040;-80
2023/11/14 11:02:12;;;;;;;4.82;3.22;;;11.50;99.90;;;;;;4916711;29;20052;-81
2023/11/14 11:04:41;;;;;;;7.05;2.97;;;11.50;99.90;;;;;;4917109;29;20143;-81
2023/11/14 11:07:10;;;;;;;6.72;3.30;;;11.50;99.90;;;;;;4892323;29;20048;-79
2023/11/14 11:09:40;;;;;;;8.25;4.13;;;11.40;99.90;;;;;;4920518;29;20064;-82
2023/11/14 11:12:10;;;;;;;9.73;2.88;;;11.60;99.90;;;;;;4894377;29;20055;-81
2023/11/14 11:14:49;;;;;;;6.47;2.58;;;12.60;99.90;;;;;;4903143;29;20063;-77
2023/11/14 11:17:43;;;;;;;10.25;2.45;;;11.40;99.90;;;;;;4912240;29;20072;-78
2023/11/14 11:20:26;;;;;;;5.88;2.72;;;11.40;99.90;;;;;;4882629;29;20056;-77
2023/11/14 11:23:08;;;;;;;4.53;1.95;;;11.40;99.90;;;;;;4900186;29;20082;-77
2023/11/14 11:25:41;;;;;;;4.90;1.67;;;11.40;99.90;;;;;;4901294;29;20425;-77
2023/11/14 11:28:39;;;;;;;6.00;2.20;;;11.40;99.90;;;;;;4901711;29;20064;-77
2023/11/14 11:31:23;;;;;;;5.38;1.45;;;11.50;99.90;;;;;;4885615;29;20048;-76
2023/11/14 11:33:54;;;;;;;3.42;1.45;;;11.60;99.90;;;;;;4881441;29;20051;-76
2023/11/14 11:36:44;;;;;;;4.50;1.25;;;11.60;99.90;;;;;;4892428;29;20411;-77
2023/11/14 11:39:13;;;;;;;4.78;1.30;;;11.50;99.90;;;;;;4887930;29;20044;-77
2023/11/14 11:41:57;;;;;;;4.30;0.93;;;11.40;99.90;;;;;;4889137;29;20535;-77
2023/11/14 11:44:38;;;;;;;5.68;2.45;;;11.40;99.90;;;;;;4890262;29;20059;-79
2023/11/14 11:47:35;;;;;;;6.97;1.85;;;11.40;99.90;;;;;;4879077;29;20048;-76
2023/11/14 11:50:29;;;;;;;6.38;1.27;;;11.40;99.90;;;;;;4880022;29;20512;-77
2023/11/14 11:53:01;;;;;;;8.82;1.88;;;11.30;99.90;;;;;;4880928;29;20067;-77
2023/11/14 11:55:31;;;;;;;5.18;1.35;;;11.30;99.90;;;;;;4884114;29;20056;-77
2023/11/14 11:58:04;;;;;;;5.53;2.10;;;11.30;99.90;;;;;;4903828;29;20512;-76
2023/11/14 12:00:36;;;;;;;6.72;2.03;;;11.30;99.90;;;;;;4881915;29;20056;-77
2023/11/14 12:03:05;;;;;;;3.05;1.30;;;11.30;99.90;;;;;;4895870;29;20064;-76
2023/11/14 12:05:34;;;;;;;4.15;1.50;;;11.30;99.90;;;;;;4889104;29;20056;-77
2023/11/14 12:08:04;;;;;;;113.90;56.80;;;11.40;99.90;;;;;;4873996;29;20100;-77
2023/11/14 12:10:35;;;;;;;1.85;0.73;;;11.70;99.90;;;;;;4884038;29;20055;-78
2023/11/14 12:13:05;;;;;;;3.08;0.90;;;11.80;99.90;;;;;;4921668;29;20071;-76
2023/11/14 12:15:33;;;;;;;2.90;0.95;;;12.00;99.90;;;;;;4897949;29;20056;-76
2023/11/14 12:18:03;;;;;;;3.05;1.00;;;12.10;99.90;;;;;;4896611;29;20150;-77
2023/11/14 12:20:32;;;;;;;2.22;0.57;;;12.20;99.90;;;;;;4896792;29;20059;-78
2023/11/14 12:23:01;;;;;;;37.05;2.58;;;12.20;99.90;;;;;;4896052;29;20055;-76
2023/11/14 12:25:29;;;;;;;3.58;0.52;;;12.30;99.90;;;;;;4900097;29;20764;-77
2023/11/14 12:28:02;;;;;;;2.72;0.50;;;12.30;99.90;;;;;;4898509;29;20079;-77
2023/11/14 12:30:34;;;;;;;4.75;0.70;;;12.30;99.90;;;;;;4880663;29;20530;-77
2023/11/14 12:33:03;;;;;;;5.82;0.70;;;12.20;99.90;;;;;;4886370;29;22171;-76
2023/11/14 12:35:57;;;;;;;4.10;0.75;;;12.10;99.90;;;;;;4888790;29;20519;-76
2023/11/14 12:38:30;;;;;;;6.60;0.95;;;12.10;99.90;;;;;;4895993;29;22326;-77
2023/11/14 12:41:24;;;;;;;2.58;0.68;;;12.10;99.90;;;;;;4907857;29;20475;-77
2023/11/14 12:43:58;;;;;;;;;;;12.10;99.90;;;;;;4926730;29;20063;-77
2023/11/14 12:46:38;;;;;;;3.47;1.10;;;12.10;99.90;;;;;;4913543;29;19937;-77
2023/11/14 12:49:16;;;;;;;4.85;1.20;;;12.10;99.90;;;;;;4909040;29;20070;-76
2023/11/14 12:51:48;;;;;;;3.95;1.15;;;12.10;99.90;;;;;;4907006;29;20455;-77
2023/11/14 12:54:20;;;;;;;2.88;0.98;;;12.00;99.90;;;;;;4907686;29;20063;-76
2023/11/14 12:56:49;;;;;;;4.50;1.17;;;12.00;99.90;;;;;;4908703;29;20062;-77
2023/11/14 12:59:19;;;;;;;4.15;1.52;;;12.00;99.90;;;;;;4913312;29;20062;-76
2023/11/14 13:01:52;;;;;;;7.22;2.38;;;12.00;99.90;;;;;;4905576;29;20048;-76